createdAt,value
2023-05-13T00:01:16.537Z,28.51161
2023-05-13T00:06:18.465Z,29.02146
2023-05-13T00:11:19.866Z,27.96237
2023-05-13T00:16:21.366Z,27.98048
2023-05-13T00:21:22.871Z,28.57991
2023-05-13T00:26:24.294Z,28.69967
2023-05-13T00:31:25.797Z,28.99192
2023-05-13T00:36:27.233Z,28.66123
2023-05-13T00:41:28.640Z,29.09675
2023-05-13T00:46:30.310Z,28.87216
2023-05-13T00:51:31.804Z,28.52432
2023-05-13T00:56:33.242Z,27.92838
2023-05-13T01:01:34.671Z,28.47984
2023-05-13T01:06:36.087Z,27.86834
2023-05-13T01:11:37.501Z,27.8353
2023-05-13T01:16:38.886Z,27.18601
2023-05-13T01:21:40.315Z,26.95824
2023-05-13T01:26:41.795Z,26.72635
2023-05-13T01:31:43.371Z,26.55514
2023-05-13T01:36:44.899Z,26.02719
2023-05-13T01:41:46.357Z,25.73844
2023-05-13T01:46:47.851Z,25.22607
2023-05-13T01:51:49.383Z,24.85187
2023-05-13T01:56:50.774Z,24.24199
2023-05-13T02:01:52.344Z,24.00184
2023-05-13T02:06:53.746Z,23.98755
2023-05-13T02:11:55.114Z,22.79447
2023-05-13T02:16:56.503Z,23.05113
2023-05-13T02:21:57.921Z,22.93392
2023-05-13T02:26:59.303Z,22.88024
2023-05-13T02:32:00.679Z,22.58356
2023-05-13T02:37:02.120Z,22.36184
2023-05-13T02:42:03.768Z,22.45301
2023-05-13T02:47:05.139Z,21.86791
2023-05-13T02:52:06.548Z,21.28568
2023-05-13T02:57:08.011Z,21.11193
2023-05-13T03:02:09.416Z,21.30315
2023-05-13T03:07:10.933Z,20.75999
2023-05-13T03:12:12.331Z,20.74665
2023-05-13T03:17:13.789Z,20.30037
2023-05-13T03:22:15.204Z,19.7569
2023-05-13T03:27:16.575Z,19.21692
2023-05-13T03:32:18.037Z,19.49739
2023-05-13T03:37:19.529Z,19.05302
2023-05-13T03:42:20.929Z,18.15953
2023-05-13T03:47:22.382Z,18.59691
2023-05-13T03:52:23.800Z,17.86287
2023-05-13T03:57:25.282Z,18.01152
2023-05-13T04:02:26.887Z,17.87145
2023-05-13T04:07:28.442Z,16.99988
2023-05-13T04:12:29.867Z,16.28174
2023-05-13T04:17:31.349Z,17.05166
2023-05-13T04:22:32.795Z,16.40688
2023-05-13T04:27:34.172Z,16.59523
2023-05-13T04:32:35.618Z,15.48865
2023-05-13T04:37:37.230Z,15.38923
2023-05-13T04:42:38.627Z,15.73258
2023-05-13T04:47:40.059Z,15.68017
2023-05-13T04:52:41.472Z,16.50471
2023-05-13T04:57:42.858Z,16.47803
2023-05-13T05:02:44.276Z,15.94506
2023-05-13T05:07:45.683Z,15.99715
2023-05-13T05:12:47.088Z,15.82373
2023-05-13T05:17:48.574Z,14.49229
2023-05-13T05:22:50.065Z,15.12275
2023-05-13T05:27:51.470Z,14.98268
2023-05-13T05:32:52.938Z,14.85818
2023-05-13T05:37:54.419Z,14.9506
2023-05-13T05:42:55.850Z,13.2158
2023-05-13T05:47:57.355Z,14.21533
2023-05-13T05:52:58.822Z,14.06922
2023-05-13T05:58:00.348Z,14.22073
2023-05-13T06:03:01.982Z,14.18357
2023-05-13T06:08:03.522Z,13.80243
2023-05-13T06:13:04.912Z,14.07526
2023-05-13T06:18:06.446Z,13.62044
2023-05-13T06:23:07.868Z,12.00699
2023-05-13T06:28:09.251Z,11.55917
2023-05-13T06:33:10.751Z,12.89597
2023-05-13T06:38:12.213Z,12.97823
2023-05-13T06:43:13.641Z,13.20119
2023-05-13T06:48:15.087Z,12.03875
2023-05-13T06:53:16.533Z,12.42432
2023-05-13T06:58:17.981Z,13.04334
2023-05-13T07:03:19.374Z,13.04969
2023-05-13T07:08:20.822Z,12.76893
2023-05-13T07:13:22.257Z,12.49642
2023-05-13T07:18:23.819Z,11.81865
2023-05-13T07:23:25.279Z,12.57011
2023-05-13T07:28:26.735Z,12.06892
2023-05-13T07:33:28.120Z,12.87946
2023-05-13T07:38:29.556Z,12.59551
2023-05-13T07:43:41.456Z,12.25218
2023-05-13T07:48:42.865Z,11.68875
2023-05-13T07:53:44.246Z,10.60128
2023-05-13T07:58:45.651Z,11.6373
2023-05-13T08:03:47.332Z,11.77927
2023-05-13T08:08:48.839Z,11.68399
2023-05-13T08:13:50.264Z,11.59982
2023-05-13T08:18:51.712Z,11.73226
2023-05-13T08:23:53.185Z,11.47405
2023-05-13T08:28:55.206Z,11.65572
2023-05-13T08:33:56.821Z,11.49628
2023-05-13T08:38:58.235Z,11.26888
2023-05-13T08:43:59.634Z,11.58712
2023-05-13T08:49:01.027Z,11.0167
2023-05-13T08:54:02.466Z,10.80582
2023-05-13T08:59:03.957Z,9.75615
2023-05-13T09:04:05.405Z,10.58699
2023-05-13T09:09:06.831Z,10.66035
2023-05-13T09:14:08.214Z,10.54348
2023-05-13T09:19:09.842Z,10.72514
2023-05-13T09:24:11.727Z,10.13727
2023-05-13T09:29:13.195Z,10.46439
2023-05-13T09:34:14.625Z,10.17347
2023-05-13T09:39:16.011Z,9.45729
2023-05-13T09:44:17.365Z,9.33438
2023-05-13T09:49:18.839Z,10.14171
2023-05-13T09:54:20.254Z,9.79267
2023-05-13T09:59:21.669Z,9.97752
2023-05-13T10:04:23.108Z,9.39155
2023-05-13T10:09:24.578Z,8.9936
2023-05-13T10:14:25.982Z,9.55257
2023-05-13T10:19:27.381Z,9.13589
2023-05-13T10:24:28.798Z,9.2607
2023-05-13T10:29:30.275Z,9.51509
2023-05-13T10:34:31.685Z,9.56591
2023-05-13T10:39:33.136Z,9.1451
2023-05-13T10:44:34.555Z,8.84179
2023-05-13T10:49:35.940Z,8.9574
2023-05-13T10:54:37.381Z,9.06093
2023-05-13T10:59:38.771Z,9.25467
2023-05-13T11:04:40.191Z,9.00726
2023-05-13T11:09:41.604Z,8.74302
2023-05-13T11:14:43.030Z,8.70332
2023-05-13T11:19:44.427Z,8.75858
2023-05-13T11:24:45.818Z,8.69951
2023-05-13T11:29:47.177Z,7.70608
2023-05-13T11:34:48.530Z,8.21677
2023-05-13T11:39:50.071Z,8.24662
2023-05-13T11:44:51.439Z,7.7985
2023-05-13T11:49:52.820Z,8.12721
2023-05-13T11:54:54.285Z,8.30855
2023-05-13T11:59:55.738Z,8.40891
2023-05-13T12:04:57.196Z,8.15992
2023-05-13T12:09:58.692Z,8.38636
2023-05-13T12:15:00.184Z,8.32602
2023-05-13T12:20:01.614Z,8.4032
2023-05-13T12:25:03.031Z,8.35238
2023-05-13T12:30:04.405Z,8.49752
2023-05-13T12:35:05.808Z,8.62043
2023-05-13T12:40:07.210Z,8.50356
2023-05-13T12:45:08.652Z,8.39494
2023-05-13T12:50:10.136Z,8.18914
2023-05-13T12:55:11.541Z,8.22122
2023-05-13T13:00:12.921Z,8.38859
2023-05-13T13:05:14.290Z,8.68554
2023-05-13T13:10:15.681Z,8.89102
2023-05-13T13:15:17.068Z,8.69824
2023-05-13T13:20:18.456Z,8.85323
2023-05-13T13:25:20.091Z,8.68427
2023-05-13T13:30:21.823Z,9.34709
2023-05-13T13:35:23.446Z,9.57957
2023-05-13T13:40:25.114Z,10.14807
2023-05-13T13:45:26.555Z,9.88224
2023-05-13T13:50:27.992Z,10.62065
2023-05-13T13:55:29.353Z,11.33367
2023-05-13T14:00:30.758Z,11.36988
2023-05-13T14:05:32.180Z,11.68399
2023-05-13T14:10:33.583Z,11.63126
2023-05-13T14:15:35.035Z,12.75082
2023-05-13T14:20:36.479Z,11.97459
2023-05-13T14:25:37.859Z,12.50722
2023-05-13T14:30:39.292Z,13.1148
2023-05-13T14:35:40.670Z,13.01507
2023-05-13T14:40:42.025Z,13.58963
2023-05-13T14:45:48.690Z,13.22311
2023-05-13T14:50:50.100Z,14.47513
2023-05-13T14:55:51.746Z,14.79656
2023-05-13T15:01:03.873Z,14.2328
2023-05-13T15:06:05.340Z,15.04748
2023-05-13T15:11:06.741Z,15.46387
2023-05-13T15:16:08.166Z,15.92124
2023-05-13T15:21:09.550Z,16.48438
2023-05-13T15:26:11.009Z,17.45218
2023-05-13T15:31:12.457Z,17.85811
2023-05-13T15:36:13.868Z,18.23291
2023-05-13T15:41:15.296Z,18.51877
2023-05-13T15:46:16.835Z,18.97139
2023-05-13T15:51:18.368Z,18.54164
2023-05-13T15:56:19.746Z,17.99945
2023-05-13T16:01:21.214Z,18.96282
2023-05-13T16:06:22.660Z,19.41798
2023-05-13T16:11:24.163Z,19.13338
2023-05-13T16:16:25.585Z,20.16569
2023-05-13T16:21:27.082Z,20.36167
2023-05-13T16:26:28.481Z,21.45498
2023-05-13T16:31:29.987Z,21.41337
2023-05-13T16:36:31.437Z,21.8552
2023-05-13T16:41:32.826Z,22.07755
2023-05-13T16:46:34.254Z,21.83138
2023-05-13T16:51:35.728Z,22.60674
2023-05-13T16:56:37.117Z,22.32023
2023-05-13T17:01:38.565Z,22.83831
2023-05-13T17:06:39.990Z,22.55433
2023-05-13T17:11:41.434Z,22.79352
2023-05-13T17:16:42.952Z,22.79479
2023-05-13T17:21:44.370Z,22.4943
2023-05-13T17:26:45.776Z,22.73984
2023-05-13T17:31:47.205Z,23.04541
2023-05-13T17:36:50.219Z,23.26046
2023-05-13T17:41:51.751Z,23.11561
2023-05-13T17:46:53.156Z,22.61278
2023-05-13T17:51:54.553Z,22.98156
2023-05-13T17:56:55.960Z,24.00375
2023-05-13T18:01:57.385Z,24.28487
2023-05-13T18:06:58.837Z,24.96941
2023-05-13T18:12:00.227Z,25.33153
2023-05-13T18:17:01.748Z,25.36044
2023-05-13T18:22:03.149Z,25.45033
2023-05-13T18:27:04.538Z,26.29085
2023-05-13T18:32:05.971Z,25.41984
2023-05-13T18:37:07.409Z,26.20476
2023-05-13T18:42:08.837Z,26.5707
2023-05-13T18:47:10.245Z,26.26575
2023-05-13T18:52:11.682Z,26.20127
2023-05-13T18:57:13.103Z,26.42299
2023-05-13T19:02:14.708Z,25.90648
2023-05-13T19:07:16.327Z,25.93793
2023-05-13T19:12:17.709Z,25.74353
2023-05-13T19:17:19.192Z,26.16029
2023-05-13T19:22:20.723Z,25.26323
2023-05-13T19:27:22.134Z,25.85788
2023-05-13T19:32:23.592Z,25.36456
2023-05-13T19:37:25.168Z,25.4138
2023-05-13T19:42:26.564Z,25.80801
2023-05-13T19:47:27.976Z,25.44271
2023-05-13T19:52:29.414Z,27.00272
2023-05-13T19:57:30.807Z,27.08848
2023-05-13T20:02:32.314Z,27.16218
2023-05-13T20:07:33.714Z,27.0815
2023-05-13T20:12:35.139Z,27.68505
2023-05-13T20:17:36.649Z,27.58372
2023-05-13T20:22:38.179Z,28.37946
2023-05-13T20:27:39.644Z,29.22223
2023-05-13T20:32:41.084Z,28.33816
2023-05-13T20:37:42.642Z,29.05323
2023-05-13T20:42:44.064Z,28.83944
2023-05-13T20:47:45.439Z,28.71841
2023-05-13T20:52:46.850Z,27.97571
2023-05-13T20:57:48.276Z,29.51829
2023-05-13T21:02:49.714Z,28.3029
2023-05-13T21:07:51.197Z,29.04465
2023-05-13T21:12:52.573Z,29.97034
2023-05-13T21:17:54.046Z,28.38296
2023-05-13T21:22:55.449Z,29.91983
2023-05-13T21:27:56.819Z,28.32006
2023-05-13T21:32:58.241Z,29.58056
2023-05-13T21:38:10.910Z,29.73177
2023-05-13T21:43:13.169Z,30.06595
2023-05-13T21:48:14.911Z,29.15202
2023-05-13T21:53:16.551Z,29.08245
2023-05-13T21:58:17.961Z,29.22922
2023-05-13T22:03:19.407Z,29.03671
2023-05-13T22:08:20.792Z,29.45762
2023-05-13T22:13:22.186Z,30.15395
2023-05-13T22:18:23.856Z,31.04947
2023-05-13T22:23:25.402Z,29.2146
2023-05-13T22:28:26.773Z,28.43791
2023-05-13T22:33:28.138Z,28.76415
2023-05-13T22:38:29.577Z,28.34642
2023-05-13T22:43:30.997Z,28.98811
2023-05-13T22:48:32.416Z,29.19332
2023-05-13T22:53:33.816Z,29.69714
2023-05-13T22:58:35.207Z,29.73081
2023-05-13T23:03:36.706Z,29.72732
2023-05-13T23:08:38.170Z,29.89346
2023-05-13T23:13:39.536Z,30.00115
2023-05-13T23:18:40.953Z,30.22606
2023-05-13T23:23:42.379Z,31.12317
2023-05-13T23:28:43.846Z,30.56597
2023-05-13T23:33:45.368Z,30.60218
2023-05-13T23:38:46.768Z,30.78389
2023-05-13T23:43:48.156Z,30.14505
2023-05-13T23:48:49.550Z,30.59011
2023-05-13T23:53:51.049Z,30.97386
2023-05-13T23:58:52.422Z,30.7769
